Terminal Aerodrome Forecast
Issued by NWS Grand Forks, ND

Home | Current Version | Previous Version | Text Only | Print | Product List | Glossary On
Versions: 1 2 3 4 5 6 7 8 9 10 11 12 13 14 15
000
FTUS43 KFGF 200500
TAFGFK
TAF
KGFK 200522Z 2006/2106 16005KT 5SM BR OVC011
      TEMPO 2007/2010 2SM BR OVC006
     FM201000 VRB02KT 2SM BR OVC003
      TEMPO 2010/2014 3/4SM BR
     FM202000 16007KT P6SM OVC008=

USA.gov is the U.S. government's official web portal to all federal, state and local government web resources and services.